ENKB/KSU METAR and TAF weather

Enter ICAO airport designator
Station Type Date Time Source
ENKB METAR 2019/08/22 02:20 UTC NOAA

ENKB 220220Z AUTO 10006KT 9999 OVC098/// 11/07 Q1018 RMK WIND 745FT 11011KT


Station Type Date Time Source
ENKB Decoded METAR 2019/08/22 02:20 UTC NOAA

Station name not available
Aug 21, 2019 - 10:20 PM EDT / 2019.08.22 0220 UTC
Wind: from the E (100 degrees) at 7 MPH (6 KT):0
Visibility: greater than 7 mile(s):0
Sky conditions: overcast
Temperature: 51 F (11 C)
Dew Point: 44 F (7 C)
Relative Humidity: 76%
Pressure (altimeter): 30.06 in. Hg (1018 hPa)
ob: ENKB 220220Z AUTO 10006KT 9999 OVC098/// 11/07 Q1018 RMK WIND 745FT 11011KT
cycle: 2

Station Type Date Time Source
ENKB TAF 2010/02/05 07:50 UTC NOAA

METAR ENKB 050750Z 15011KT 110V200 9999 SCT055 BKN070 03/M05 Q1007

Example: see airport list